createdAt,value
2023-04-22T00:01:00.203Z,25.77
2023-04-22T00:11:02.290Z,27.10
2023-04-22T00:21:05.173Z,26.48
2023-04-22T00:31:06.948Z,24.53
2023-04-22T00:41:09.364Z,22.98
2023-04-22T00:51:12.096Z,25.43
2023-04-22T01:01:20.621Z,21.70
2023-04-22T01:11:25.680Z,23.75
2023-04-22T01:21:28.123Z,19.50
2023-04-22T01:31:32.325Z,24.13
2023-04-22T01:41:35.487Z,21.33
2023-04-22T02:01:42.992Z,16.95
2023-04-22T02:11:46.457Z,20.07
2023-04-22T02:21:48.077Z,21.33
2023-04-22T02:31:50.721Z,19.60
2023-04-22T02:42:01.418Z,17.77
2023-04-22T02:52:03.380Z,19.30
2023-04-22T03:02:08.918Z,16.60
2023-04-22T03:12:10.829Z,18.52
2023-04-22T03:22:13.374Z,24.10
2023-04-22T03:32:15.266Z,20.85
2023-04-22T03:42:34.632Z,20.20
2023-04-22T03:52:36.302Z,21.98
2023-04-22T04:02:43.978Z,19.35
2023-04-22T04:12:45.873Z,21.95
2023-04-22T04:22:47.676Z,23.35
2023-04-22T04:32:49.726Z,21.50
2023-04-22T04:42:55.954Z,19.13
2023-04-22T04:52:57.740Z,15.32
2023-04-22T05:02:59.681Z,15.02
2023-04-22T05:13:04.032Z,15.65
2023-04-22T05:23:08.389Z,18.75
2023-04-22T05:33:10.612Z,17.05
2023-04-22T05:43:13.742Z,26.55
2023-04-22T05:53:15.917Z,18.02
2023-04-22T06:03:21.794Z,20.03
2023-04-22T06:13:23.792Z,12.20
2023-04-22T06:23:26.619Z,19.65
2023-04-22T06:33:28.233Z,15.75
2023-04-22T06:43:29.960Z,10.32
2023-04-22T06:53:32.403Z,13.02
2023-04-22T07:03:35.599Z,11.07
2023-04-22T07:13:39.165Z,10.13
2023-04-22T07:23:43.831Z,10.30
2023-04-22T07:33:53.200Z,8.32
2023-04-22T07:44:01.120Z,9.10
2023-04-22T07:54:04.786Z,11.18
2023-04-22T08:04:08.035Z,8.05
2023-04-22T08:14:10.038Z,12.63
2023-04-22T08:24:11.891Z,7.45
2023-04-22T08:34:13.751Z,7.72
2023-04-22T08:44:17.231Z,11.70
2023-04-22T08:54:19.824Z,14.00
2023-04-22T09:04:24.371Z,5.90
2023-04-22T09:14:28.148Z,7.50
2023-04-22T09:24:31.836Z,7.18
2023-04-22T09:34:34.567Z,7.28
2023-04-22T09:44:39.230Z,6.93
2023-04-22T09:54:50.848Z,9.60
2023-04-22T10:04:58.606Z,8.52
2023-04-22T10:15:01.364Z,7.95
2023-04-22T10:25:11.657Z,6.93
2023-04-22T10:35:14.657Z,10.00
2023-04-22T10:45:24.986Z,5.13
2023-04-22T10:56:18.567Z,8.40
2023-04-22T11:06:27.969Z,4.28
2023-04-22T11:16:30.331Z,10.13
2023-04-22T11:26:36.441Z,9.27
2023-04-22T11:36:48.163Z,7.93
2023-04-22T11:46:54.579Z,9.55
2023-04-22T11:56:58.429Z,3.80
2023-04-22T12:07:01.694Z,10.02
2023-04-22T12:17:09.528Z,4.45
2023-04-22T12:27:13.618Z,8.30
2023-04-22T12:37:17.885Z,5.57
2023-04-22T12:47:26.938Z,6.90
2023-04-22T12:57:28.770Z,6.90
2023-04-22T13:07:31.089Z,7.65
2023-04-22T13:17:33.775Z,4.82
2023-04-22T13:27:38.574Z,8.65
2023-04-22T13:37:41.370Z,7.20
2023-04-22T13:47:43.157Z,10.68
2023-04-22T13:57:46.799Z,6.97
2023-04-22T14:07:51.070Z,7.95
2023-04-22T14:17:59.036Z,5.25
2023-04-22T14:28:00.945Z,9.25
2023-04-22T14:38:05.092Z,4.30
2023-04-22T14:48:06.836Z,6.55
2023-04-22T14:58:11.885Z,7.88
2023-04-22T15:08:14.613Z,7.05
2023-04-22T15:18:16.452Z,4.15
2023-04-22T15:28:19.356Z,11.40
2023-04-22T15:38:22.362Z,8.10
2023-04-22T15:48:27.401Z,6.65
2023-04-22T15:58:32.426Z,7.63
2023-04-22T16:08:37.894Z,9.90
2023-04-22T16:18:44.099Z,8.68
2023-04-22T16:28:46.987Z,10.05
2023-04-22T16:38:49.619Z,13.50
2023-04-22T16:48:52.131Z,5.60
2023-04-22T16:58:53.825Z,5.78
2023-04-22T17:09:01.249Z,7.93
2023-04-22T17:19:03.350Z,11.00
2023-04-22T17:29:08.041Z,8.60
2023-04-22T17:39:10.221Z,7.88
2023-04-22T17:49:13.941Z,9.30
2023-04-22T17:59:19.434Z,11.43
2023-04-22T18:09:29.566Z,11.70
2023-04-22T18:19:37.275Z,7.57
2023-04-22T18:29:41.548Z,7.30
2023-04-22T18:39:45.360Z,7.20
2023-04-22T18:49:50.625Z,9.63
2023-04-22T18:59:54.457Z,10.55
2023-04-22T19:09:58.310Z,11.93
2023-04-22T19:20:09.154Z,8.80
2023-04-22T19:30:11.500Z,9.63
2023-04-22T19:40:16.038Z,9.75
2023-04-22T19:50:20.746Z,11.93
2023-04-22T20:10:28.287Z,10.10
2023-04-22T20:20:31.499Z,11.98
2023-04-22T20:30:35.221Z,14.18
2023-04-22T20:40:38.726Z,15.45
2023-04-22T20:50:40.876Z,17.85
2023-04-22T21:00:49.759Z,13.60
2023-04-22T21:10:54.159Z,18.33
2023-04-22T21:20:57.068Z,14.95
2023-04-22T21:30:59.142Z,18.27
2023-04-22T21:41:02.102Z,14.25
2023-04-22T21:51:04.119Z,12.07
2023-04-22T22:01:06.399Z,15.50
2023-04-22T22:11:12.429Z,15.05
2023-04-22T22:21:19.909Z,16.88
2023-04-22T22:31:22.228Z,16.53
2023-04-22T22:41:23.882Z,14.77
2023-04-22T22:51:25.685Z,15.93
2023-04-22T23:01:27.474Z,21.55
2023-04-22T23:11:29.161Z,23.85
2023-04-22T23:21:32.054Z,21.98
2023-04-22T23:31:35.784Z,18.47
2023-04-22T23:41:37.694Z,24.67
2023-04-22T23:51:39.407Z,22.45
